createdAt,value
2023-01-18T00:00:49.221Z,21.86
2023-01-18T00:01:49.199Z,21.86
2023-01-18T00:02:49.165Z,21.89
2023-01-18T00:03:49.117Z,21.93
2023-01-18T00:04:49.092Z,21.86
2023-01-18T00:05:49.040Z,21.95
2023-01-18T00:06:49.029Z,21.95
2023-01-18T00:07:48.967Z,21.90
2023-01-18T00:08:48.958Z,21.90
2023-01-18T00:09:48.910Z,21.97
2023-01-18T01:23:46.587Z,22.01
2023-01-18T01:24:46.531Z,22.00
2023-01-18T01:25:46.495Z,21.91
2023-01-18T01:26:46.457Z,21.97
2023-01-18T01:27:46.426Z,21.91
2023-01-18T01:28:46.401Z,21.85
2023-01-18T01:29:46.364Z,21.94
2023-01-18T01:30:46.461Z,21.88
2023-01-18T01:31:46.297Z,21.83
2023-01-18T01:32:46.282Z,21.88
2023-01-18T01:33:46.241Z,21.86
2023-01-18T01:34:46.185Z,21.86
2023-01-18T01:35:46.176Z,21.89
2023-01-18T01:36:46.116Z,21.85
2023-01-18T01:37:46.090Z,21.89
2023-01-18T01:38:46.075Z,21.82
2023-01-18T01:39:46.043Z,21.86
2023-01-18T01:40:46.009Z,21.88
2023-01-18T01:41:45.980Z,21.79
2023-01-18T01:42:45.948Z,21.83
2023-01-18T01:43:45.921Z,21.88
2023-01-18T01:44:45.879Z,21.80
2023-01-18T01:45:45.894Z,21.83
2023-01-18T01:46:45.853Z,21.80
2023-01-18T01:47:45.800Z,21.77
2023-01-18T01:48:45.781Z,21.74
2023-01-18T01:49:45.760Z,21.76
2023-01-18T01:50:45.717Z,21.73
2023-01-18T01:51:45.683Z,21.79
2023-01-18T01:52:45.656Z,21.80
2023-01-18T01:53:45.622Z,21.85
2023-01-18T01:54:45.585Z,21.85
2023-01-18T01:55:45.553Z,21.83
2023-01-18T01:56:45.520Z,21.85
2023-01-18T01:57:45.503Z,21.85
2023-01-18T01:58:45.446Z,21.86
2023-01-18T01:59:45.423Z,21.86
2023-01-18T02:00:45.442Z,21.95
2023-01-18T02:01:45.452Z,21.89
2023-01-18T02:02:45.383Z,21.98
2023-01-18T02:03:45.322Z,21.97
2023-01-18T02:04:45.282Z,21.97
2023-01-18T02:05:45.272Z,21.97
2023-01-18T02:06:45.232Z,22.04
2023-01-18T02:07:45.208Z,22.00
2023-01-18T02:08:45.170Z,22.00
2023-01-18T02:09:45.132Z,22.02
2023-01-18T02:10:45.100Z,22.06
2023-01-18T02:11:45.074Z,22.13
2023-01-18T02:12:45.040Z,22.10
2023-01-18T02:13:45.008Z,22.07
2023-01-18T02:14:44.964Z,22.17
2023-01-18T02:15:44.938Z,22.19
2023-01-18T02:16:44.941Z,22.13
2023-01-18T02:17:44.875Z,22.14
2023-01-18T02:18:44.812Z,22.22
2023-01-18T02:19:44.791Z,22.23
2023-01-18T02:20:44.757Z,22.22
2023-01-18T02:21:44.715Z,22.27
2023-01-18T02:22:44.672Z,22.22
2023-01-18T02:23:44.649Z,22.22
2023-01-18T02:24:44.643Z,22.29
2023-01-18T02:25:44.576Z,22.31
2023-01-18T02:26:44.552Z,22.34
2023-01-18T02:27:44.517Z,22.33
2023-01-18T02:28:44.472Z,22.29
2023-01-18T02:29:44.453Z,22.31
2023-01-18T02:30:44.424Z,22.33
2023-01-18T02:31:44.375Z,22.39
2023-01-18T02:32:44.339Z,22.37
2023-01-18T02:33:44.318Z,22.35
2023-01-18T02:34:44.283Z,22.34
2023-01-18T02:35:44.255Z,22.34
2023-01-18T02:36:44.216Z,22.37
2023-01-18T02:37:44.182Z,22.41
2023-01-18T02:38:44.145Z,22.38
2023-01-18T02:39:44.125Z,22.43
2023-01-18T02:40:44.093Z,22.38
2023-01-18T02:41:44.062Z,22.40
2023-01-18T02:42:44.019Z,22.47
2023-01-18T02:43:43.993Z,22.43
2023-01-18T02:44:43.956Z,22.41
2023-01-18T02:45:43.930Z,22.44
2023-01-18T02:46:43.898Z,22.43
2023-01-18T02:47:43.865Z,22.49
2023-01-18T02:48:43.819Z,22.47
2023-01-18T02:49:43.823Z,22.44
2023-01-18T02:50:43.773Z,22.50
2023-01-18T02:51:43.724Z,22.47
2023-01-18T02:52:43.689Z,22.52
2023-01-18T02:53:43.673Z,22.53
2023-01-18T02:54:43.626Z,22.56
2023-01-18T02:55:43.580Z,22.53
2023-01-18T02:56:43.543Z,22.52
2023-01-18T02:57:43.500Z,22.52
2023-01-18T02:58:43.480Z,22.49
2023-01-18T02:59:43.452Z,22.44
2023-01-18T03:00:43.403Z,22.46
2023-01-18T03:01:43.398Z,22.44
2023-01-18T03:02:43.349Z,22.44
2023-01-18T03:03:43.318Z,22.40
2023-01-18T03:04:43.258Z,22.35
2023-01-18T03:05:43.230Z,22.36
2023-01-18T03:06:43.195Z,22.37
2023-01-18T03:07:43.147Z,22.33
2023-01-18T03:08:43.117Z,22.33
2023-01-18T03:09:43.079Z,22.25
2023-01-18T03:10:43.049Z,22.25
2023-01-18T03:11:43.002Z,22.28
2023-01-18T03:12:42.958Z,22.27
2023-01-18T03:13:42.927Z,22.27
2023-01-18T03:14:42.888Z,22.21
2023-01-18T03:15:42.887Z,22.24
2023-01-18T03:16:42.827Z,22.14
2023-01-18T03:17:42.800Z,22.17
2023-01-18T03:18:42.764Z,22.19
2023-01-18T03:19:42.737Z,22.07
2023-01-18T03:20:42.691Z,22.11
2023-01-18T03:21:42.661Z,22.13
2023-01-18T03:22:42.636Z,22.11
2023-01-18T03:23:42.608Z,22.11
2023-01-18T03:24:42.565Z,22.11
2023-01-18T03:25:42.561Z,22.10
2023-01-18T03:26:42.537Z,22.06
2023-01-18T03:27:42.474Z,22.11
2023-01-18T03:28:42.447Z,22.13
2023-01-18T03:29:42.421Z,22.04
2023-01-18T03:30:42.430Z,22.04
2023-01-18T03:31:42.357Z,22.05
2023-01-18T03:32:42.305Z,22.07
2023-01-18T03:33:42.274Z,21.99
2023-01-18T03:34:42.237Z,22.07
2023-01-18T03:35:42.222Z,22.02
2023-01-18T03:36:42.182Z,22.01
2023-01-18T03:37:42.133Z,21.97
2023-01-18T03:38:42.093Z,21.99
2023-01-18T03:39:42.073Z,22.01
2023-01-18T03:40:42.025Z,21.99
2023-01-18T03:41:41.981Z,21.98
2023-01-18T03:42:41.939Z,22.00
2023-01-18T03:43:41.900Z,21.98
2023-01-18T03:44:41.870Z,21.99
2023-01-18T03:45:41.843Z,21.95
2023-01-18T03:46:41.804Z,21.98
2023-01-18T03:47:41.762Z,22.00
2023-01-18T03:48:41.715Z,21.98
2023-01-18T03:49:41.684Z,21.95
2023-01-18T03:50:41.650Z,21.98
2023-01-18T03:51:41.627Z,22.00
2023-01-18T03:52:41.583Z,22.02
2023-01-18T03:53:41.544Z,21.99
2023-01-18T03:54:41.505Z,22.05
2023-01-18T03:55:41.466Z,22.05
2023-01-18T03:56:41.429Z,22.05
2023-01-18T03:57:41.395Z,22.07
2023-01-18T03:58:41.355Z,22.02
2023-01-18T03:59:41.347Z,22.04
2023-01-18T04:00:41.290Z,22.13
2023-01-18T04:01:41.310Z,22.20
2023-01-18T04:02:41.240Z,22.17
2023-01-18T04:03:41.169Z,22.24
2023-01-18T04:04:41.134Z,22.18
2023-01-18T04:05:41.101Z,22.18
2023-01-18T04:06:41.070Z,22.18
2023-01-18T04:07:41.039Z,22.20
2023-01-18T04:08:40.993Z,22.23
2023-01-18T04:09:40.977Z,22.22
2023-01-18T04:10:40.925Z,22.17
2023-01-18T04:11:40.893Z,22.18
2023-01-18T04:12:40.851Z,22.20
2023-01-18T04:13:40.811Z,22.23
2023-01-18T04:14:40.756Z,22.26
2023-01-18T04:15:40.778Z,22.35
2023-01-18T04:16:40.682Z,22.33
2023-01-18T04:17:40.649Z,22.30
2023-01-18T04:18:40.632Z,22.35
2023-01-18T04:19:40.579Z,22.31
2023-01-18T04:20:40.514Z,22.32
2023-01-18T04:21:40.504Z,22.28
2023-01-18T04:22:40.463Z,22.32
2023-01-18T04:23:40.426Z,22.37
2023-01-18T04:24:41.125Z,22.29
2023-01-18T04:25:40.347Z,22.36
2023-01-18T04:26:40.318Z,22.39
2023-01-18T04:27:40.253Z,22.50
2023-01-18T04:28:40.217Z,22.39
2023-01-18T04:29:40.178Z,22.39
2023-01-18T04:30:40.139Z,22.44
2023-01-18T04:31:40.167Z,22.45
2023-01-18T04:32:40.086Z,22.38
2023-01-18T04:33:40.048Z,22.39
2023-01-18T04:34:40.043Z,22.47
2023-01-18T04:35:39.974Z,22.41
2023-01-18T04:36:39.935Z,22.44
2023-01-18T04:37:39.891Z,22.39
2023-01-18T04:38:39.863Z,22.44
2023-01-18T04:39:39.821Z,22.40
2023-01-18T04:40:39.790Z,22.35
2023-01-18T04:41:39.759Z,22.36
2023-01-18T04:42:39.733Z,22.45
2023-01-18T04:43:39.689Z,22.45
2023-01-18T04:44:39.655Z,22.45
2023-01-18T04:45:39.624Z,22.48
2023-01-18T04:46:39.692Z,22.50
2023-01-18T04:47:39.560Z,22.56
2023-01-18T04:48:39.533Z,22.48
2023-01-18T04:49:39.488Z,22.50
2023-01-18T04:50:39.462Z,22.54
2023-01-18T04:51:39.418Z,22.50
2023-01-18T04:52:39.384Z,22.56
2023-01-18T04:53:39.332Z,22.57
2023-01-18T04:54:39.301Z,22.53
2023-01-18T04:55:39.262Z,22.59
2023-01-18T04:56:39.233Z,22.63
2023-01-18T04:57:39.190Z,22.59
2023-01-18T04:58:39.156Z,22.56
2023-01-18T04:59:39.108Z,22.65
2023-01-18T05:00:39.103Z,22.62
2023-01-18T05:01:39.088Z,22.62
2023-01-18T05:02:39.083Z,22.62
2023-01-18T05:03:38.973Z,22.66
2023-01-18T05:04:38.935Z,22.60
2023-01-18T08:22:30.629Z,25.89
2023-01-18T08:25:30.496Z,25.82
2023-01-18T08:26:30.459Z,25.90
2023-01-18T08:27:30.433Z,25.85
2023-01-18T08:28:30.370Z,25.85
2023-01-18T08:29:30.310Z,25.84
2023-01-18T08:30:30.267Z,25.83
2023-01-18T08:31:30.289Z,25.82
2023-01-18T08:32:30.194Z,25.84
2023-01-18T08:33:30.143Z,25.76
2023-01-18T08:34:30.086Z,25.78
2023-01-18T08:35:30.049Z,25.78
2023-01-18T08:36:30.015Z,25.86
2023-01-18T08:37:29.945Z,26.00
2023-01-18T08:38:29.885Z,26.38
2023-01-18T08:39:29.843Z,26.54
2023-01-18T08:40:29.794Z,26.97
2023-01-18T08:41:29.757Z,26.45
2023-01-18T08:42:29.725Z,26.37
2023-01-18T08:43:29.666Z,26.40
2023-01-18T08:44:29.618Z,26.41
2023-01-18T08:45:29.608Z,26.51
2023-01-18T08:46:29.521Z,26.65
2023-01-18T08:47:29.468Z,26.65
2023-01-18T08:48:29.417Z,26.68
2023-01-18T08:49:29.356Z,26.39
2023-01-18T08:50:29.303Z,25.41
2023-01-18T08:51:29.267Z,25.00
2023-01-18T08:52:29.206Z,24.02
2023-01-18T08:53:29.180Z,23.52
2023-01-18T08:54:29.109Z,23.03
2023-01-18T08:55:29.075Z,22.27
2023-01-18T08:56:29.044Z,21.82
2023-01-18T08:57:28.974Z,20.54
2023-01-18T08:58:28.935Z,21.05
2023-01-18T08:59:28.961Z,21.44
2023-01-18T09:52:26.485Z,25.15
2023-01-18T09:53:26.407Z,24.97
2023-01-18T09:54:26.353Z,24.83
2023-01-18T09:55:26.310Z,24.66
2023-01-18T09:56:26.276Z,24.65
2023-01-18T09:57:26.233Z,24.55
2023-01-18T09:58:26.173Z,24.54
2023-01-18T09:59:26.109Z,24.51
2023-01-18T10:00:26.089Z,24.40
2023-01-18T10:01:26.119Z,24.33
2023-01-18T10:02:26.056Z,24.37
2023-01-18T10:03:25.958Z,24.31
2023-01-18T10:04:25.893Z,24.27
2023-01-18T10:05:25.851Z,24.27
2023-01-18T10:06:25.832Z,24.19
2023-01-18T10:07:25.749Z,24.16
2023-01-18T10:08:25.717Z,24.14
2023-01-18T10:09:25.672Z,24.13
2023-01-18T10:10:25.625Z,24.04
2023-01-18T10:11:25.584Z,24.05
2023-01-18T10:12:25.530Z,24.01
2023-01-18T10:13:25.484Z,23.93
2023-01-18T10:14:25.452Z,23.99
2023-01-18T10:15:25.394Z,23.93
2023-01-18T10:16:25.416Z,24.00
2023-01-18T10:17:25.324Z,24.01
2023-01-18T10:18:25.335Z,23.92
2023-01-18T10:19:25.222Z,23.97
2023-01-18T10:20:25.229Z,23.96
2023-01-18T10:21:25.157Z,23.95
2023-01-18T10:22:25.123Z,24.00
2023-01-18T10:23:25.068Z,23.98
2023-01-18T10:24:25.036Z,24.04
2023-01-18T10:25:24.992Z,24.10
2023-01-18T10:26:24.944Z,24.11
2023-01-18T10:27:24.899Z,24.11
2023-01-18T10:28:24.858Z,24.15
2023-01-18T10:29:24.819Z,24.17
2023-01-18T10:30:24.763Z,24.18
2023-01-18T10:31:24.795Z,24.18
2023-01-18T10:32:24.698Z,24.15
2023-01-18T10:33:24.663Z,24.18
2023-01-18T10:34:24.601Z,24.22
2023-01-18T10:35:24.566Z,24.25
2023-01-18T10:36:24.532Z,24.28
2023-01-18T10:37:24.537Z,24.28
2023-01-18T10:38:24.442Z,24.25
2023-01-18T10:39:24.405Z,24.29
2023-01-18T10:40:24.364Z,28.00
2023-01-18T10:41:24.331Z,27.19
2023-01-18T10:42:24.301Z,28.13
2023-01-18T10:43:24.263Z,27.76
2023-01-18T10:44:24.226Z,28.41
2023-01-18T10:45:24.203Z,27.88
2023-01-18T10:46:24.144Z,27.93
2023-01-18T10:47:24.108Z,27.72
2023-01-18T10:48:24.048Z,27.90
2023-01-18T10:49:24.014Z,28.14
2023-01-18T10:50:23.968Z,27.33
2023-01-18T10:51:23.919Z,28.83
2023-01-18T10:52:23.874Z,28.91
2023-01-18T10:53:24.019Z,28.32
2023-01-18T10:54:23.788Z,28.53
2023-01-18T10:55:23.750Z,28.59
2023-01-18T10:56:23.708Z,28.66
2023-01-18T10:57:23.653Z,28.56
2023-01-18T10:58:23.647Z,28.21
2023-01-18T10:59:23.577Z,28.42
2023-01-18T11:00:23.525Z,28.34
2023-01-18T11:01:23.647Z,28.01
2023-01-18T11:02:23.474Z,28.51
2023-01-18T11:03:23.384Z,28.51
2023-01-18T11:04:23.352Z,27.87
2023-01-18T11:05:23.294Z,28.74
2023-01-18T11:06:23.252Z,28.47
2023-01-18T11:07:23.221Z,28.61
2023-01-18T11:08:23.181Z,28.49
2023-01-18T11:09:23.162Z,26.30
2023-01-18T11:10:23.073Z,28.42
2023-01-18T11:11:23.019Z,28.10
2023-01-18T11:12:22.985Z,27.85
2023-01-18T11:13:22.931Z,27.91
2023-01-18T11:14:22.910Z,27.84
2023-01-18T11:15:22.860Z,27.77
2023-01-18T11:16:22.846Z,26.66
2023-01-18T11:17:22.755Z,27.52
2023-01-18T11:18:22.723Z,27.43
2023-01-18T11:19:22.700Z,27.25
2023-01-18T11:20:22.623Z,27.04
2023-01-18T11:21:22.592Z,26.77
2023-01-18T11:22:22.558Z,25.73
2023-01-18T11:23:22.515Z,26.93
2023-01-18T11:24:22.465Z,26.88
2023-01-18T11:25:22.431Z,26.74
2023-01-18T11:26:22.379Z,26.68
2023-01-18T11:27:22.340Z,26.71
2023-01-18T11:28:22.294Z,26.58
2023-01-18T11:29:22.279Z,26.49
2023-01-18T11:30:22.234Z,26.50
2023-01-18T11:31:22.495Z,26.37
2023-01-18T11:32:22.135Z,26.32
2023-01-18T11:33:22.076Z,26.25
2023-01-18T11:34:22.039Z,26.29
2023-01-18T11:35:21.970Z,26.26
2023-01-18T11:36:21.932Z,25.69
2023-01-18T11:37:21.899Z,26.51
2023-01-18T11:38:21.837Z,27.54
2023-01-18T11:39:21.811Z,27.48
2023-01-18T11:40:21.740Z,27.47
2023-01-18T11:41:21.707Z,27.26
2023-01-18T11:42:21.658Z,27.76
2023-01-18T11:43:21.603Z,27.56
2023-01-18T11:44:21.581Z,27.74
2023-01-18T11:45:22.465Z,27.66
2023-01-18T11:46:21.449Z,27.80
2023-01-18T11:47:21.404Z,27.71
2023-01-18T11:48:21.412Z,27.63
2023-01-18T11:49:21.306Z,27.57
2023-01-18T11:50:25.314Z,27.64
2023-01-18T11:51:21.208Z,27.47
2023-01-18T11:52:21.163Z,27.36
2023-01-18T11:53:21.112Z,27.21
2023-01-18T11:54:21.073Z,27.32
2023-01-18T11:55:21.010Z,27.15
2023-01-18T11:56:20.979Z,26.98
2023-01-18T11:57:20.916Z,26.81
2023-01-18T11:58:20.881Z,26.67
2023-01-18T11:59:20.821Z,26.50
2023-01-18T12:00:20.803Z,26.37
2023-01-18T12:01:20.796Z,26.11
2023-01-18T12:02:20.724Z,26.22
2023-01-18T12:03:20.669Z,26.19
2023-01-18T12:04:20.585Z,26.16
2023-01-18T12:05:20.526Z,25.89
2023-01-18T12:06:20.472Z,25.65
2023-01-18T12:07:20.424Z,25.38
2023-01-18T12:08:20.380Z,25.29
2023-01-18T12:09:20.324Z,25.19
2023-01-18T12:10:20.287Z,25.12
2023-01-18T12:11:20.242Z,25.06
2023-01-18T12:12:20.175Z,25.21
2023-01-18T12:13:20.137Z,25.14
2023-01-18T12:14:20.090Z,25.18
2023-01-18T12:15:20.651Z,25.19
2023-01-18T12:16:20.038Z,25.22
2023-01-18T12:17:19.951Z,25.25
2023-01-18T12:18:20.364Z,25.13
2023-01-18T12:19:19.859Z,25.05
2023-01-18T12:20:19.816Z,24.87
2023-01-18T12:21:19.775Z,24.90
2023-01-18T12:22:19.725Z,24.99
2023-01-18T12:23:19.689Z,23.50
2023-01-18T12:24:19.651Z,24.95
2023-01-18T12:25:19.614Z,25.04
2023-01-18T12:26:19.560Z,25.19
2023-01-18T12:27:19.514Z,25.25
2023-01-18T12:28:19.462Z,25.35
2023-01-18T12:29:19.428Z,25.63
2023-01-18T12:30:19.467Z,26.46
2023-01-18T12:31:19.329Z,25.98
2023-01-18T12:32:19.333Z,25.77
2023-01-18T12:33:19.241Z,25.60
2023-01-18T12:34:19.261Z,25.60
2023-01-18T12:35:24.724Z,25.40
2023-01-18T12:36:20.080Z,25.41
2023-01-18T12:37:19.041Z,25.69
2023-01-18T12:38:18.985Z,25.68
2023-01-18T12:39:18.922Z,25.55
2023-01-18T13:06:17.587Z,24.15
2023-01-18T13:07:17.572Z,24.05
2023-01-18T13:08:17.491Z,24.05
2023-01-18T13:09:17.462Z,24.05
2023-01-18T13:10:17.410Z,24.02
2023-01-18T13:11:17.361Z,24.02
2023-01-18T13:12:17.326Z,23.99
2023-01-18T13:13:17.255Z,23.95
2023-01-18T13:14:17.217Z,23.98
2023-01-18T13:15:17.181Z,24.03
2023-01-18T13:16:17.164Z,23.99
2023-01-18T13:17:17.085Z,23.98
2023-01-18T13:18:17.043Z,24.03
2023-01-18T13:19:16.989Z,23.96
2023-01-18T13:20:16.947Z,23.85
2023-01-18T13:21:16.948Z,23.83
2023-01-18T13:22:16.863Z,23.79
2023-01-18T13:23:16.814Z,23.73
2023-01-18T13:24:16.766Z,23.76
2023-01-18T13:25:16.725Z,23.67
2023-01-18T13:26:16.669Z,23.64
2023-01-18T13:27:16.660Z,23.61
2023-01-18T13:28:16.584Z,23.63
2023-01-18T13:29:16.546Z,23.57
2023-01-18T13:30:16.536Z,23.52
2023-01-18T13:31:16.519Z,23.59
2023-01-18T13:32:16.396Z,23.45
2023-01-18T13:33:16.358Z,23.37
2023-01-18T13:34:16.297Z,23.29
2023-01-18T13:35:21.152Z,23.29
2023-01-18T13:37:16.202Z,23.82
2023-01-18T13:38:16.130Z,24.34
2023-01-18T13:39:16.100Z,24.62
2023-01-18T13:40:16.050Z,25.12
2023-01-18T13:41:15.999Z,25.40
2023-01-18T13:42:15.963Z,25.73
2023-01-18T13:43:15.894Z,25.93
2023-01-18T13:44:15.838Z,26.00
2023-01-18T13:45:15.799Z,26.27
2023-01-18T13:46:15.793Z,26.57
2023-01-18T13:47:15.703Z,26.81
2023-01-18T13:48:15.671Z,27.01
2023-01-18T13:49:30.944Z,27.14
2023-01-18T13:51:15.517Z,27.64
2023-01-18T13:52:15.525Z,27.67
2023-01-18T13:53:15.525Z,27.82
2023-01-18T13:54:15.405Z,28.23
2023-01-18T13:55:15.292Z,28.48
2023-01-18T13:56:15.246Z,28.35
2023-01-18T13:57:16.700Z,28.56
2023-01-18T13:58:15.158Z,28.59
2023-01-18T13:59:15.103Z,28.79
2023-01-18T14:00:15.100Z,28.93
2023-01-18T14:01:15.103Z,28.69
2023-01-18T14:02:15.056Z,28.78
2023-01-18T14:03:14.956Z,29.14
2023-01-18T14:04:14.886Z,29.24
2023-01-18T14:05:14.809Z,29.18
2023-01-18T14:06:14.770Z,29.53
2023-01-18T14:07:14.715Z,29.84
2023-01-18T14:08:14.670Z,29.62
2023-01-18T14:09:14.636Z,29.86
2023-01-18T14:10:14.555Z,29.81
2023-01-18T14:11:14.497Z,29.98
2023-01-18T14:12:14.474Z,30.05
2023-01-18T14:13:14.408Z,30.12
2023-01-18T14:14:14.349Z,30.18
2023-01-18T14:15:14.298Z,30.01
2023-01-18T14:16:14.340Z,30.08
2023-01-18T14:17:14.183Z,30.15
2023-01-18T14:18:14.158Z,29.77
2023-01-18T14:19:14.080Z,30.11
2023-01-18T14:20:14.021Z,30.23
2023-01-18T14:21:13.993Z,30.00
2023-01-18T14:22:13.949Z,30.04
2023-01-18T14:23:13.869Z,29.83
2023-01-18T14:24:13.817Z,29.58
2023-01-18T14:25:13.749Z,30.23
2023-01-18T14:26:13.709Z,30.07
2023-01-18T14:27:13.678Z,29.99
2023-01-18T14:28:13.621Z,30.04
2023-01-18T14:29:13.555Z,29.88
2023-01-18T14:30:13.502Z,29.76
2023-01-18T14:31:13.454Z,29.44
2023-01-18T14:32:13.385Z,29.50
2023-01-18T14:33:13.316Z,29.37
2023-01-18T14:34:13.283Z,29.30
2023-01-18T14:35:13.219Z,29.28
2023-01-18T14:36:13.196Z,29.54
2023-01-18T14:37:13.870Z,29.70
2023-01-18T14:38:17.791Z,29.97
2023-01-18T14:39:13.996Z,29.83
2023-01-18T14:40:12.963Z,30.08
2023-01-18T14:41:12.873Z,30.01
2023-01-18T14:42:12.824Z,29.90
2023-01-18T14:43:12.793Z,29.81
2023-01-18T14:44:12.710Z,29.75
2023-01-18T14:45:12.716Z,29.83
2023-01-18T14:46:12.658Z,29.77
2023-01-18T14:47:23.597Z,29.67
2023-01-18T14:48:13.512Z,29.88
2023-01-18T14:49:12.459Z,29.72
2023-01-18T14:50:12.417Z,29.70
2023-01-18T14:51:12.349Z,29.71
2023-01-18T14:52:12.278Z,29.81
2023-01-18T14:53:12.233Z,29.63
2023-01-18T14:54:12.220Z,29.71
2023-01-18T14:55:12.114Z,29.54
2023-01-18T14:56:12.093Z,29.58
2023-01-18T14:57:12.022Z,29.49
2023-01-18T14:58:12.007Z,29.84
2023-01-18T14:59:11.924Z,29.72
2023-01-18T15:00:11.848Z,29.49
2023-01-18T15:01:11.989Z,29.63
2023-01-18T15:02:11.858Z,29.37
2023-01-18T15:03:11.684Z,29.75
2023-01-18T15:04:11.617Z,29.58
2023-01-18T15:05:11.581Z,29.51
2023-01-18T15:06:11.498Z,29.52
2023-01-18T15:07:11.466Z,29.53
2023-01-18T15:08:11.399Z,29.64
2023-01-18T15:09:11.331Z,29.56
2023-01-18T15:10:11.328Z,29.65
2023-01-18T15:11:11.234Z,29.24
2023-01-18T15:12:11.191Z,28.77
2023-01-18T15:13:11.110Z,28.74
2023-01-18T15:14:11.873Z,28.53
2023-01-18T15:15:10.984Z,28.45
2023-01-18T15:16:10.959Z,28.22
2023-01-18T15:17:10.866Z,28.04
2023-01-18T15:18:10.829Z,28.18
2023-01-18T15:19:10.756Z,27.91
2023-01-18T15:20:10.698Z,27.79
2023-01-18T15:21:10.644Z,27.69
2023-01-18T15:22:10.614Z,27.63
2023-01-18T15:23:10.553Z,27.38
2023-01-18T15:24:10.491Z,27.15
2023-01-18T15:25:10.429Z,27.04
2023-01-18T15:26:10.384Z,27.03
2023-01-18T15:27:10.344Z,26.85
2023-01-18T15:28:23.028Z,26.61
2023-01-18T15:29:11.229Z,26.47
2023-01-18T15:30:10.190Z,26.33
2023-01-18T15:31:10.134Z,26.42
2023-01-18T15:32:10.070Z,26.14
2023-01-18T15:33:10.038Z,26.22
2023-01-18T15:34:09.982Z,25.96
2023-01-18T15:35:09.947Z,25.88
2023-01-18T15:36:09.995Z,25.90
2023-01-18T15:37:09.808Z,25.78
2023-01-18T15:38:09.775Z,25.81
2023-01-18T15:39:09.735Z,25.79
2023-01-18T15:40:09.664Z,25.65
2023-01-18T15:41:11.012Z,25.70
2023-01-18T15:42:09.571Z,25.68
2023-01-18T15:43:09.585Z,25.51
2023-01-18T15:44:09.458Z,25.30
2023-01-18T15:45:09.397Z,25.46
2023-01-18T15:46:09.420Z,25.47
2023-01-18T15:47:10.454Z,25.47
2023-01-18T15:48:09.230Z,25.38
2023-01-18T15:49:09.182Z,25.35
2023-01-18T15:50:09.144Z,25.19
2023-01-18T15:51:09.075Z,25.13
2023-01-18T15:52:09.015Z,25.17
2023-01-18T15:53:08.970Z,25.27
2023-01-18T15:54:08.917Z,25.20
2023-01-18T16:11:08.893Z,24.68
2023-01-18T16:29:07.164Z,23.86
2023-01-18T16:30:07.032Z,23.81
2023-01-18T16:31:07.025Z,23.79
2023-01-18T16:32:06.933Z,23.68
2023-01-18T16:33:06.883Z,23.78
2023-01-18T16:34:06.827Z,23.75
2023-01-18T16:35:07.804Z,23.67
2023-01-18T16:36:06.739Z,23.65
2023-01-18T16:37:06.671Z,23.71
2023-01-18T16:38:06.624Z,23.68
2023-01-18T16:39:06.576Z,23.61
2023-01-18T16:40:06.544Z,23.61
2023-01-18T16:41:06.480Z,23.62
2023-01-18T16:42:06.434Z,23.61
2023-01-18T16:43:06.376Z,23.64
2023-01-18T16:44:06.329Z,23.49
2023-01-18T16:45:06.285Z,23.48
2023-01-18T16:46:06.306Z,23.47
2023-01-18T16:47:06.193Z,23.46
2023-01-18T16:48:06.132Z,23.41
2023-01-18T16:49:06.094Z,23.40
2023-01-18T16:50:06.054Z,23.37
2023-01-18T16:51:06.001Z,23.41
2023-01-18T16:52:05.976Z,23.36
2023-01-18T16:53:05.919Z,23.38
2023-01-18T16:54:05.883Z,23.33
2023-01-18T16:55:05.837Z,23.34
2023-01-18T16:56:05.804Z,23.30
2023-01-18T16:57:05.754Z,23.29
2023-01-18T16:58:05.705Z,23.27
2023-01-18T16:59:05.658Z,23.30
2023-01-18T17:00:05.614Z,23.23
2023-01-18T17:01:05.775Z,23.26
2023-01-18T17:02:05.706Z,23.23
2023-01-18T17:03:05.540Z,23.26
2023-01-18T17:04:05.441Z,23.21
2023-01-18T17:05:05.397Z,23.26
2023-01-18T17:06:05.360Z,23.21
2023-01-18T17:07:05.310Z,23.23
2023-01-18T17:08:05.275Z,23.26
2023-01-18T17:09:05.232Z,23.23
2023-01-18T17:10:05.202Z,23.20
2023-01-18T17:11:05.140Z,23.19
2023-01-18T17:12:05.084Z,23.14
2023-01-18T17:13:05.043Z,23.10
2023-01-18T17:14:05.015Z,23.16
2023-01-18T17:15:04.954Z,23.12
2023-01-18T17:16:04.916Z,23.15
2023-01-18T17:17:04.869Z,23.12
2023-01-18T17:18:04.873Z,23.08
2023-01-18T17:19:04.792Z,23.09
2023-01-18T17:20:04.732Z,23.09
2023-01-18T17:21:04.685Z,23.08
2023-01-18T17:22:04.653Z,23.06
2023-01-18T17:23:04.601Z,23.10
2023-01-18T17:24:04.579Z,23.06
2023-01-18T17:25:04.522Z,23.00
2023-01-18T17:26:04.491Z,23.00
2023-01-18T17:27:04.426Z,22.99
2023-01-18T17:28:04.390Z,23.03
2023-01-18T17:29:04.347Z,22.94
2023-01-18T17:30:04.320Z,22.95
2023-01-18T17:31:04.324Z,22.96
2023-01-18T17:32:04.208Z,23.00
2023-01-18T17:33:04.173Z,23.00
2023-01-18T17:34:04.100Z,23.03
2023-01-18T17:35:04.065Z,22.96
2023-01-18T17:37:03.975Z,22.94
2023-01-18T17:38:06.202Z,22.94
2023-01-18T17:39:04.874Z,22.88
2023-01-18T17:40:16.511Z,22.95
2023-01-18T17:41:04.777Z,22.88
2023-01-18T17:42:03.746Z,22.88
2023-01-18T17:43:03.701Z,22.92
2023-01-18T17:44:03.665Z,22.91
2023-01-18T17:45:03.666Z,22.88
2023-01-18T17:46:03.643Z,22.85
2023-01-18T17:47:03.536Z,22.85
2023-01-18T17:48:03.487Z,22.91
2023-01-18T17:49:03.438Z,22.89
2023-01-18T17:50:03.403Z,22.86
2023-01-18T17:51:03.353Z,22.88
2023-01-18T17:52:03.295Z,22.85
2023-01-18T17:53:03.255Z,22.86
2023-01-18T17:54:03.668Z,22.85
2023-01-18T17:55:03.154Z,22.89
2023-01-18T17:56:03.103Z,22.84
2023-01-18T17:57:03.060Z,22.85
2023-01-18T17:58:03.011Z,22.88
2023-01-18T17:59:02.976Z,22.83
2023-01-18T18:00:02.922Z,22.84
2023-01-18T18:01:02.997Z,22.89
2023-01-18T18:02:02.836Z,22.88
2023-01-18T18:03:02.891Z,22.87
2023-01-18T18:04:02.737Z,22.86
2023-01-18T18:05:02.687Z,22.84
2023-01-18T18:06:02.636Z,22.83
2023-01-18T18:07:02.590Z,22.83
2023-01-18T18:08:02.551Z,22.83
2023-01-18T18:09:02.505Z,22.83
2023-01-18T18:10:02.586Z,22.75
2023-01-18T18:11:02.422Z,22.80
2023-01-18T18:12:02.369Z,22.71
2023-01-18T18:13:02.779Z,22.77
2023-01-18T18:14:03.174Z,22.80
2023-01-18T18:15:02.938Z,22.77
2023-01-18T18:16:02.247Z,22.77
2023-01-18T18:17:02.150Z,22.71
2023-01-18T18:18:02.992Z,22.68
2023-01-18T18:19:02.058Z,22.68
2023-01-18T18:20:02.005Z,22.72
2023-01-18T18:21:01.996Z,22.71
2023-01-18T18:22:01.914Z,22.70
2023-01-18T18:23:02.299Z,22.68
2023-01-18T18:24:01.832Z,22.70
2023-01-18T18:25:01.772Z,22.72
2023-01-18T18:26:01.736Z,22.65
2023-01-18T18:27:02.959Z,22.68
2023-01-18T18:28:01.648Z,22.65
2023-01-18T18:29:01.628Z,22.60
2023-01-18T18:30:01.580Z,22.62
2023-01-18T18:31:01.592Z,22.62
2023-01-18T18:32:01.497Z,22.68
2023-01-18T18:33:01.858Z,22.60
2023-01-18T18:34:01.407Z,22.66
2023-01-18T18:35:01.566Z,22.56
2023-01-18T18:36:01.945Z,22.65
2023-01-18T18:37:01.284Z,22.56
2023-01-18T18:38:01.215Z,22.65
2023-01-18T18:39:01.165Z,22.65
2023-01-18T18:40:01.126Z,22.66
2023-01-18T18:41:01.098Z,22.68
2023-01-18T18:42:01.037Z,22.74
2023-01-18T18:43:02.850Z,22.69
2023-01-18T18:44:00.969Z,22.74
2023-01-18T18:45:00.916Z,22.74
2023-01-18T18:46:00.866Z,22.77
2023-01-18T18:47:02.426Z,22.84
2023-01-18T18:48:00.775Z,22.84
2023-01-18T18:49:00.718Z,22.84
2023-01-18T18:50:01.457Z,22.87
2023-01-18T18:51:00.658Z,22.87
2023-01-18T18:52:00.605Z,22.87
2023-01-18T18:53:00.998Z,22.94
2023-01-18T18:54:00.511Z,22.91
2023-01-18T18:55:00.470Z,23.03
2023-01-18T18:56:00.431Z,22.99
2023-01-18T18:57:00.399Z,22.98
2023-01-18T18:58:00.361Z,23.08
2023-01-18T18:59:00.327Z,23.06
2023-01-18T19:00:00.273Z,23.03
2023-01-18T19:01:00.278Z,23.09
2023-01-18T19:02:00.264Z,23.12
2023-01-18T19:03:00.309Z,23.09
2023-01-18T19:04:00.138Z,23.14
2023-01-18T19:05:00.061Z,23.14
2023-01-18T19:06:00.013Z,23.17
2023-01-18T19:06:59.973Z,23.18
2023-01-18T19:07:59.951Z,23.18
2023-01-18T19:08:59.878Z,23.20
2023-01-18T19:09:59.834Z,23.18
2023-01-18T19:10:59.782Z,23.23
2023-01-18T19:11:59.734Z,23.22
2023-01-18T19:13:00.230Z,23.25
2023-01-18T19:13:59.649Z,23.25
2023-01-18T19:14:59.618Z,23.27
2023-01-18T19:15:59.629Z,23.23
2023-01-18T19:16:59.531Z,23.25
2023-01-18T19:17:59.495Z,23.28